sensor_id;sensor_type;location;lat;lon;timestamp;P1;durP1;ratioP1;P2;durP2;ratioP2
38935;SDS011;66589;47.458;9.644;2023-04-03T00:02:07;0.30;;;0.03;;
38935;SDS011;66589;47.458;9.644;2023-04-03T00:04:32;0.30;;;0.08;;
38935;SDS011;66589;47.458;9.644;2023-04-03T00:06:58;0.30;;;0.05;;
38935;SDS011;66589;47.458;9.644;2023-04-03T00:09:24;0.35;;;0.03;;
38935;SDS011;66589;47.458;9.644;2023-04-03T00:11:50;0.28;;;0.00;;
38935;SDS011;66589;47.458;9.644;2023-04-03T00:14:15;0.57;;;0.03;;
38935;SDS011;66589;47.458;9.644;2023-04-03T00:16:41;0.30;;;0.10;;
38935;SDS011;66589;47.458;9.644;2023-04-03T00:19:07;0.40;;;0.10;;
38935;SDS011;66589;47.458;9.644;2023-04-03T00:21:33;0.70;;;0.10;;
38935;SDS011;66589;47.458;9.644;2023-04-03T00:23:58;0.50;;;0.10;;
38935;SDS011;66589;47.458;9.644;2023-04-03T00:26:24;0.32;;;0.03;;
38935;SDS011;66589;47.458;9.644;2023-04-03T00:28:50;0.40;;;0.10;;
38935;SDS011;66589;47.458;9.644;2023-04-03T00:31:17;0.28;;;0.00;;
38935;SDS011;66589;47.458;9.644;2023-04-03T00:33:43;0.30;;;0.10;;
38935;SDS011;66589;47.458;9.644;2023-04-03T00:36:09;0.50;;;0.10;;
38935;SDS011;66589;47.458;9.644;2023-04-03T00:38:35;0.40;;;0.10;;
38935;SDS011;66589;47.458;9.644;2023-04-03T00:41:01;0.60;;;0.10;;
38935;SDS011;66589;47.458;9.644;2023-04-03T00:43:27;0.60;;;0.10;;
38935;SDS011;66589;47.458;9.644;2023-04-03T00:45:57;0.52;;;0.13;;
38935;SDS011;66589;47.458;9.644;2023-04-03T00:48:28;1.45;;;0.13;;
38935;SDS011;66589;47.458;9.644;2023-04-03T00:50:57;0.60;;;0.20;;
38935;SDS011;66589;47.458;9.644;2023-04-03T00:53:25;0.63;;;0.13;;
38935;SDS011;66589;47.458;9.644;2023-04-03T00:56:13;0.63;;;0.22;;
38935;SDS011;66589;47.458;9.644;2023-04-03T00:58:48;1.50;;;0.17;;
38935;SDS011;66589;47.458;9.644;2023-04-03T01:01:23;1.77;;;0.20;;
38935;SDS011;66589;47.458;9.644;2023-04-03T01:03:51;0.70;;;0.30;;
38935;SDS011;66589;47.458;9.644;2023-04-03T01:06:18;0.75;;;0.20;;
38935;SDS011;66589;47.458;9.644;2023-04-03T01:08:48;0.95;;;0.22;;
38935;SDS011;66589;47.458;9.644;2023-04-03T01:11:15;1.20;;;0.40;;
38935;SDS011;66589;47.458;9.644;2023-04-03T01:13:40;1.25;;;0.30;;
38935;SDS011;66589;47.458;9.644;2023-04-03T01:16:06;0.90;;;0.30;;
38935;SDS011;66589;47.458;9.644;2023-04-03T01:18:32;1.13;;;0.22;;
38935;SDS011;66589;47.458;9.644;2023-04-03T01:26:44;1.02;;;0.40;;
38935;SDS011;66589;47.458;9.644;2023-04-03T01:29:10;1.02;;;0.30;;
38935;SDS011;66589;47.458;9.644;2023-04-03T01:31:49;1.40;;;0.43;;
38935;SDS011;66589;47.458;9.644;2023-04-03T01:34:17;1.30;;;0.32;;
38935;SDS011;66589;47.458;9.644;2023-04-03T01:36:43;1.75;;;0.52;;
38935;SDS011;66589;47.458;9.644;2023-04-03T01:39:09;1.23;;;0.32;;
38935;SDS011;66589;47.458;9.644;2023-04-03T01:41:35;1.75;;;0.55;;
38935;SDS011;66589;47.458;9.644;2023-04-03T01:44:01;1.88;;;0.43;;
38935;SDS011;66589;47.458;9.644;2023-04-03T01:46:27;1.98;;;0.60;;
38935;SDS011;66589;47.458;9.644;2023-04-03T01:48:52;1.63;;;0.75;;
38935;SDS011;66589;47.458;9.644;2023-04-03T01:51:18;2.58;;;0.82;;
38935;SDS011;66589;47.458;9.644;2023-04-03T01:53:44;4.35;;;0.82;;
38935;SDS011;66589;47.458;9.644;2023-04-03T01:56:09;2.75;;;0.68;;
38935;SDS011;66589;47.458;9.644;2023-04-03T01:58:35;3.55;;;0.70;;
38935;SDS011;66589;47.458;9.644;2023-04-03T02:01:01;2.03;;;0.70;;
38935;SDS011;66589;47.458;9.644;2023-04-03T02:03:27;2.38;;;0.90;;
38935;SDS011;66589;47.458;9.644;2023-04-03T02:05:53;2.03;;;0.63;;
38935;SDS011;66589;47.458;9.644;2023-04-03T02:08:18;2.35;;;0.98;;
38935;SDS011;66589;47.458;9.644;2023-04-03T02:10:46;2.70;;;1.02;;
38935;SDS011;66589;47.458;9.644;2023-04-03T02:13:12;3.08;;;1.00;;
38935;SDS011;66589;47.458;9.644;2023-04-03T02:15:38;4.10;;;1.20;;
38935;SDS011;66589;47.458;9.644;2023-04-03T02:18:04;2.53;;;0.98;;
38935;SDS011;66589;47.458;9.644;2023-04-03T02:20:30;2.83;;;1.02;;
38935;SDS011;66589;47.458;9.644;2023-04-03T02:22:56;3.10;;;1.33;;
38935;SDS011;66589;47.458;9.644;2023-04-03T02:25:22;2.90;;;1.13;;
38935;SDS011;66589;47.458;9.644;2023-04-03T02:27:47;3.47;;;1.42;;
38935;SDS011;66589;47.458;9.644;2023-04-03T02:30:13;3.47;;;1.27;;
38935;SDS011;66589;47.458;9.644;2023-04-03T02:32:40;3.05;;;1.23;;
38935;SDS011;66589;47.458;9.644;2023-04-03T02:35:06;3.10;;;1.40;;
38935;SDS011;66589;47.458;9.644;2023-04-03T02:37:32;4.90;;;1.65;;
38935;SDS011;66589;47.458;9.644;2023-04-03T02:39:58;3.70;;;1.67;;
38935;SDS011;66589;47.458;9.644;2023-04-03T02:42:23;5.60;;;3.05;;
38935;SDS011;66589;47.458;9.644;2023-04-03T02:44:49;4.18;;;2.17;;
38935;SDS011;66589;47.458;9.644;2023-04-03T02:47:15;4.68;;;1.98;;
38935;SDS011;66589;47.458;9.644;2023-04-03T02:49:41;3.92;;;1.95;;
38935;SDS011;66589;47.458;9.644;2023-04-03T02:52:09;4.57;;;1.85;;
38935;SDS011;66589;47.458;9.644;2023-04-03T02:54:35;3.45;;;1.50;;
38935;SDS011;66589;47.458;9.644;2023-04-03T02:57:01;3.60;;;1.85;;
38935;SDS011;66589;47.458;9.644;2023-04-03T02:59:26;3.80;;;1.88;;
38935;SDS011;66589;47.458;9.644;2023-04-03T03:01:52;4.78;;;1.95;;
38935;SDS011;66589;47.458;9.644;2023-04-03T03:04:18;3.70;;;1.80;;
38935;SDS011;66589;47.458;9.644;2023-04-03T03:06:43;4.45;;;1.83;;
38935;SDS011;66589;47.458;9.644;2023-04-03T03:09:09;3.83;;;1.83;;
38935;SDS011;66589;47.458;9.644;2023-04-03T03:11:35;5.22;;;2.08;;
38935;SDS011;66589;47.458;9.644;2023-04-03T03:14:01;3.80;;;1.95;;
38935;SDS011;66589;47.458;9.644;2023-04-03T03:16:26;10.82;;;2.13;;
38935;SDS011;66589;47.458;9.644;2023-04-03T03:18:52;4.40;;;2.03;;
38935;SDS011;66589;47.458;9.644;2023-04-03T03:21:18;5.18;;;2.20;;
38935;SDS011;66589;47.458;9.644;2023-04-03T03:23:43;4.00;;;2.00;;
38935;SDS011;66589;47.458;9.644;2023-04-03T03:26:10;4.95;;;2.08;;
38935;SDS011;66589;47.458;9.644;2023-04-03T03:28:36;4.72;;;2.25;;
38935;SDS011;66589;47.458;9.644;2023-04-03T03:31:03;4.85;;;2.22;;
38935;SDS011;66589;47.458;9.644;2023-04-03T03:33:29;3.97;;;1.90;;
38935;SDS011;66589;47.458;9.644;2023-04-03T03:35:55;4.57;;;2.17;;
38935;SDS011;66589;47.458;9.644;2023-04-03T03:38:22;6.32;;;2.15;;
38935;SDS011;66589;47.458;9.644;2023-04-03T03:40:48;4.43;;;2.05;;
38935;SDS011;66589;47.458;9.644;2023-04-03T03:43:14;5.28;;;2.50;;
38935;SDS011;66589;47.458;9.644;2023-04-03T03:45:40;5.88;;;1.92;;
38935;SDS011;66589;47.458;9.644;2023-04-03T03:48:06;3.92;;;2.22;;
38935;SDS011;66589;47.458;9.644;2023-04-03T03:50:31;4.25;;;2.30;;
38935;SDS011;66589;47.458;9.644;2023-04-03T03:52:57;4.53;;;2.10;;
38935;SDS011;66589;47.458;9.644;2023-04-03T03:55:23;4.22;;;2.13;;
38935;SDS011;66589;47.458;9.644;2023-04-03T03:57:48;5.00;;;2.22;;
38935;SDS011;66589;47.458;9.644;2023-04-03T04:00:14;4.32;;;2.03;;
38935;SDS011;66589;47.458;9.644;2023-04-03T04:02:40;5.22;;;2.65;;
38935;SDS011;66589;47.458;9.644;2023-04-03T04:05:06;4.07;;;2.13;;
38935;SDS011;66589;47.458;9.644;2023-04-03T04:07:32;5.93;;;2.63;;
38935;SDS011;66589;47.458;9.644;2023-04-03T04:09:57;6.70;;;2.17;;
38935;SDS011;66589;47.458;9.644;2023-04-03T04:12:23;5.63;;;2.25;;
38935;SDS011;66589;47.458;9.644;2023-04-03T04:14:49;8.32;;;2.53;;
38935;SDS011;66589;47.458;9.644;2023-04-03T04:17:15;5.25;;;2.42;;
38935;SDS011;66589;47.458;9.644;2023-04-03T04:19:40;4.85;;;2.25;;
38935;SDS011;66589;47.458;9.644;2023-04-03T04:22:06;5.18;;;2.42;;
38935;SDS011;66589;47.458;9.644;2023-04-03T04:24:32;7.40;;;3.03;;
38935;SDS011;66589;47.458;9.644;2023-04-03T04:26:57;6.22;;;2.53;;
38935;SDS011;66589;47.458;9.644;2023-04-03T04:29:23;4.93;;;2.50;;
38935;SDS011;66589;47.458;9.644;2023-04-03T04:31:49;5.80;;;2.33;;
38935;SDS011;66589;47.458;9.644;2023-04-03T04:34:14;5.07;;;2.72;;
38935;SDS011;66589;47.458;9.644;2023-04-03T04:36:40;7.72;;;2.65;;
38935;SDS011;66589;47.458;9.644;2023-04-03T04:39:06;5.30;;;2.38;;
38935;SDS011;66589;47.458;9.644;2023-04-03T04:41:32;6.57;;;2.67;;
38935;SDS011;66589;47.458;9.644;2023-04-03T04:43:59;5.47;;;2.58;;
38935;SDS011;66589;47.458;9.644;2023-04-03T04:46:25;5.13;;;2.33;;
38935;SDS011;66589;47.458;9.644;2023-04-03T04:48:51;4.55;;;2.33;;
38935;SDS011;66589;47.458;9.644;2023-04-03T04:51:16;5.75;;;2.47;;
38935;SDS011;66589;47.458;9.644;2023-04-03T04:53:50;6.82;;;2.40;;
38935;SDS011;66589;47.458;9.644;2023-04-03T04:56:16;4.80;;;2.30;;
38935;SDS011;66589;47.458;9.644;2023-04-03T04:58:41;5.15;;;2.47;;
38935;SDS011;66589;47.458;9.644;2023-04-03T05:01:08;5.75;;;2.78;;
38935;SDS011;66589;47.458;9.644;2023-04-03T05:03:35;5.80;;;2.63;;
38935;SDS011;66589;47.458;9.644;2023-04-03T05:06:01;6.93;;;2.97;;
38935;SDS011;66589;47.458;9.644;2023-04-03T05:08:26;9.35;;;2.80;;
38935;SDS011;66589;47.458;9.644;2023-04-03T05:10:52;5.32;;;2.55;;
38935;SDS011;66589;47.458;9.644;2023-04-03T05:13:18;6.28;;;2.72;;
38935;SDS011;66589;47.458;9.644;2023-04-03T05:15:45;5.55;;;2.78;;
38935;SDS011;66589;47.458;9.644;2023-04-03T05:18:10;5.28;;;2.50;;
38935;SDS011;66589;47.458;9.644;2023-04-03T05:20:36;6.05;;;2.63;;
38935;SDS011;66589;47.458;9.644;2023-04-03T05:23:02;4.43;;;2.17;;
38935;SDS011;66589;47.458;9.644;2023-04-03T05:25:28;5.35;;;2.55;;
38935;SDS011;66589;47.458;9.644;2023-04-03T05:27:53;5.25;;;2.35;;
38935;SDS011;66589;47.458;9.644;2023-04-03T05:30:19;9.20;;;2.92;;
38935;SDS011;66589;47.458;9.644;2023-04-03T05:32:45;6.80;;;2.78;;
38935;SDS011;66589;47.458;9.644;2023-04-03T05:35:11;7.75;;;2.88;;
38935;SDS011;66589;47.458;9.644;2023-04-03T05:37:36;9.18;;;3.08;;
38935;SDS011;66589;47.458;9.644;2023-04-03T05:40:03;6.18;;;2.90;;
38935;SDS011;66589;47.458;9.644;2023-04-03T05:42:30;7.40;;;2.88;;
38935;SDS011;66589;47.458;9.644;2023-04-03T05:44:55;7.85;;;3.00;;
38935;SDS011;66589;47.458;9.644;2023-04-03T05:47:21;5.43;;;2.97;;
38935;SDS011;66589;47.458;9.644;2023-04-03T05:49:48;5.65;;;3.03;;
38935;SDS011;66589;47.458;9.644;2023-04-03T05:52:35;6.22;;;3.17;;
38935;SDS011;66589;47.458;9.644;2023-04-03T05:55:05;7.47;;;3.25;;
38935;SDS011;66589;47.458;9.644;2023-04-03T05:57:31;6.13;;;3.08;;
38935;SDS011;66589;47.458;9.644;2023-04-03T05:59:56;7.93;;;3.45;;
38935;SDS011;66589;47.458;9.644;2023-04-03T06:02:23;8.40;;;3.05;;
38935;SDS011;66589;47.458;9.644;2023-04-03T06:04:50;5.88;;;2.95;;
38935;SDS011;66589;47.458;9.644;2023-04-03T06:07:17;5.53;;;2.90;;
38935;SDS011;66589;47.458;9.644;2023-04-03T06:09:46;6.30;;;3.40;;
38935;SDS011;66589;47.458;9.644;2023-04-03T06:12:12;7.35;;;3.47;;
38935;SDS011;66589;47.458;9.644;2023-04-03T06:14:38;7.78;;;3.47;;
38935;SDS011;66589;47.458;9.644;2023-04-03T06:17:03;7.90;;;3.38;;
38935;SDS011;66589;47.458;9.644;2023-04-03T06:19:30;6.60;;;3.65;;
38935;SDS011;66589;47.458;9.644;2023-04-03T06:21:55;7.38;;;3.45;;
38935;SDS011;66589;47.458;9.644;2023-04-03T06:24:21;6.85;;;2.83;;
38935;SDS011;66589;47.458;9.644;2023-04-03T06:26:49;6.15;;;2.88;;
38935;SDS011;66589;47.458;9.644;2023-04-03T06:29:16;9.02;;;2.45;;
38935;SDS011;66589;47.458;9.644;2023-04-03T06:31:42;6.03;;;2.70;;
38935;SDS011;66589;47.458;9.644;2023-04-03T06:34:08;6.55;;;2.65;;
38935;SDS011;66589;47.458;9.644;2023-04-03T06:36:36;4.70;;;2.13;;
38935;SDS011;66589;47.458;9.644;2023-04-03T06:39:02;4.65;;;2.42;;
38935;SDS011;66589;47.458;9.644;2023-04-03T06:41:28;6.25;;;2.50;;
38935;SDS011;66589;47.458;9.644;2023-04-03T06:43:54;5.65;;;2.33;;
38935;SDS011;66589;47.458;9.644;2023-04-03T06:46:22;4.75;;;2.60;;
38935;SDS011;66589;47.458;9.644;2023-04-03T06:48:49;4.35;;;2.22;;
38935;SDS011;66589;47.458;9.644;2023-04-03T06:51:18;4.10;;;2.20;;
38935;SDS011;66589;47.458;9.644;2023-04-03T06:53:49;6.30;;;2.67;;
38935;SDS011;66589;47.458;9.644;2023-04-03T06:56:16;4.35;;;2.15;;
38935;SDS011;66589;47.458;9.644;2023-04-03T06:58:43;4.20;;;2.13;;
38935;SDS011;66589;47.458;9.644;2023-04-03T07:01:09;5.60;;;2.55;;
38935;SDS011;66589;47.458;9.644;2023-04-03T07:03:36;5.00;;;1.77;;
38935;SDS011;66589;47.458;9.644;2023-04-03T07:06:02;6.53;;;2.50;;
38935;SDS011;66589;47.458;9.644;2023-04-03T07:08:28;4.47;;;2.35;;
38935;SDS011;66589;47.458;9.644;2023-04-03T07:10:54;6.15;;;2.15;;
38935;SDS011;66589;47.458;9.644;2023-04-03T07:13:20;4.35;;;1.95;;
38935;SDS011;66589;47.458;9.644;2023-04-03T07:15:46;3.83;;;1.90;;
38935;SDS011;66589;47.458;9.644;2023-04-03T07:18:11;4.47;;;1.70;;
38935;SDS011;66589;47.458;9.644;2023-04-03T07:20:38;5.47;;;2.15;;
38935;SDS011;66589;47.458;9.644;2023-04-03T07:23:04;6.57;;;2.03;;
38935;SDS011;66589;47.458;9.644;2023-04-03T07:25:29;5.22;;;2.20;;
38935;SDS011;66589;47.458;9.644;2023-04-03T07:27:56;4.53;;;2.03;;
38935;SDS011;66589;47.458;9.644;2023-04-03T07:30:22;4.15;;;1.98;;
38935;SDS011;66589;47.458;9.644;2023-04-03T07:32:48;4.53;;;1.73;;
38935;SDS011;66589;47.458;9.644;2023-04-03T07:35:14;4.00;;;1.88;;
38935;SDS011;66589;47.458;9.644;2023-04-03T07:37:40;3.63;;;1.50;;
38935;SDS011;66589;47.458;9.644;2023-04-03T07:40:06;4.47;;;2.30;;
38935;SDS011;66589;47.458;9.644;2023-04-03T07:42:33;4.63;;;1.88;;
38935;SDS011;66589;47.458;9.644;2023-04-03T07:45:00;4.35;;;1.83;;
38935;SDS011;66589;47.458;9.644;2023-04-03T07:47:26;5.60;;;2.00;;
38935;SDS011;66589;47.458;9.644;2023-04-03T07:49:52;4.68;;;1.40;;
38935;SDS011;66589;47.458;9.644;2023-04-03T07:52:18;4.03;;;2.10;;
38935;SDS011;66589;47.458;9.644;2023-04-03T07:54:44;16.73;;;2.15;;
38935;SDS011;66589;47.458;9.644;2023-04-03T07:57:09;5.68;;;2.05;;
38935;SDS011;66589;47.458;9.644;2023-04-03T07:59:35;3.55;;;1.85;;
38935;SDS011;66589;47.458;9.644;2023-04-03T08:02:01;4.43;;;1.90;;
38935;SDS011;66589;47.458;9.644;2023-04-03T08:04:29;4.60;;;2.10;;
38935;SDS011;66589;47.458;9.644;2023-04-03T08:06:55;5.80;;;1.55;;
38935;SDS011;66589;47.458;9.644;2023-04-03T08:09:21;3.97;;;1.33;;
38935;SDS011;66589;47.458;9.644;2023-04-03T08:11:47;4.75;;;1.80;;
38935;SDS011;66589;47.458;9.644;2023-04-03T08:14:12;3.40;;;1.60;;
38935;SDS011;66589;47.458;9.644;2023-04-03T08:16:42;3.63;;;1.33;;
38935;SDS011;66589;47.458;9.644;2023-04-03T08:19:09;4.57;;;1.42;;
38935;SDS011;66589;47.458;9.644;2023-04-03T08:21:35;3.85;;;1.45;;
38935;SDS011;66589;47.458;9.644;2023-04-03T08:24:01;3.33;;;1.58;;
38935;SDS011;66589;47.458;9.644;2023-04-03T08:26:28;6.95;;;1.58;;
38935;SDS011;66589;47.458;9.644;2023-04-03T08:28:54;3.67;;;1.30;;
38935;SDS011;66589;47.458;9.644;2023-04-03T08:31:19;4.20;;;1.33;;
38935;SDS011;66589;47.458;9.644;2023-04-03T08:33:45;3.58;;;1.20;;
38935;SDS011;66589;47.458;9.644;2023-04-03T08:36:20;3.83;;;1.50;;
38935;SDS011;66589;47.458;9.644;2023-04-03T08:38:48;3.58;;;1.27;;
38935;SDS011;66589;47.458;9.644;2023-04-03T08:52:09;2.50;;;0.93;;
38935;SDS011;66589;47.458;9.644;2023-04-03T08:54:48;5.07;;;1.02;;
38935;SDS011;66589;47.458;9.644;2023-04-03T08:59:42;3.40;;;0.80;;
38935;SDS011;66589;47.458;9.644;2023-04-03T09:04:52;3.08;;;1.13;;
38935;SDS011;66589;47.458;9.644;2023-04-03T09:07:23;2.80;;;1.08;;
38935;SDS011;66589;47.458;9.644;2023-04-03T09:09:57;5.18;;;1.35;;
38935;SDS011;66589;47.458;9.644;2023-04-03T09:12:48;3.45;;;1.17;;
38935;SDS011;66589;47.458;9.644;2023-04-03T09:15:25;2.58;;;1.02;;
38935;SDS011;66589;47.458;9.644;2023-04-03T09:26:01;2.80;;;1.00;;
38935;SDS011;66589;47.458;9.644;2023-04-03T09:28:31;2.65;;;1.33;;
38935;SDS011;66589;47.458;9.644;2023-04-03T09:31:06;3.30;;;1.08;;
38935;SDS011;66589;47.458;9.644;2023-04-03T09:33:43;2.80;;;0.82;;
38935;SDS011;66589;47.458;9.644;2023-04-03T09:36:10;2.97;;;1.02;;
38935;SDS011;66589;47.458;9.644;2023-04-03T09:38:36;4.70;;;1.70;;
38935;SDS011;66589;47.458;9.644;2023-04-03T09:41:06;1.90;;;0.73;;
38935;SDS011;66589;47.458;9.644;2023-04-03T09:43:38;2.05;;;0.63;;
38935;SDS011;66589;47.458;9.644;2023-04-03T09:48:58;2.50;;;1.13;;
38935;SDS011;66589;47.458;9.644;2023-04-03T09:51:28;2.42;;;1.00;;
38935;SDS011;66589;47.458;9.644;2023-04-03T09:53:55;3.33;;;1.17;;
38935;SDS011;66589;47.458;9.644;2023-04-03T09:56:23;3.05;;;1.40;;
38935;SDS011;66589;47.458;9.644;2023-04-03T10:01:30;2.83;;;1.23;;
38935;SDS011;66589;47.458;9.644;2023-04-03T10:04:11;3.58;;;1.38;;
38935;SDS011;66589;47.458;9.644;2023-04-03T10:09:25;3.30;;;1.38;;
38935;SDS011;66589;47.458;9.644;2023-04-03T10:12:03;3.58;;;1.58;;
38935;SDS011;66589;47.458;9.644;2023-04-03T10:14:30;2.97;;;1.35;;
38935;SDS011;66589;47.458;9.644;2023-04-03T10:22:54;5.70;;;1.92;;
38935;SDS011;66589;47.458;9.644;2023-04-03T10:27:48;2.75;;;1.52;;
38935;SDS011;66589;47.458;9.644;2023-04-03T10:30:55;3.78;;;1.67;;
38935;SDS011;66589;47.458;9.644;2023-04-03T10:33:36;9.60;;;2.30;;
38935;SDS011;66589;47.458;9.644;2023-04-03T10:39:04;4.38;;;2.00;;
38935;SDS011;66589;47.458;9.644;2023-04-03T10:52:20;6.40;;;1.90;;
38935;SDS011;66589;47.458;9.644;2023-04-03T10:55:01;17.70;;;3.40;;
38935;SDS011;66589;47.458;9.644;2023-04-03T10:57:47;5.63;;;2.00;;
38935;SDS011;66589;47.458;9.644;2023-04-03T11:08:07;3.75;;;1.52;;
38935;SDS011;66589;47.458;9.644;2023-04-03T11:10:45;3.53;;;1.30;;
38935;SDS011;66589;47.458;9.644;2023-04-03T11:13:24;4.65;;;1.45;;
38935;SDS011;66589;47.458;9.644;2023-04-03T11:15:52;4.00;;;1.52;;
38935;SDS011;66589;47.458;9.644;2023-04-03T11:18:23;12.90;;;3.00;;
38935;SDS011;66589;47.458;9.644;2023-04-03T11:20:57;3.95;;;1.20;;
38935;SDS011;66589;47.458;9.644;2023-04-03T11:23:30;2.60;;;1.23;;
38935;SDS011;66589;47.458;9.644;2023-04-03T11:26:05;5.15;;;1.38;;
38935;SDS011;66589;47.458;9.644;2023-04-03T11:28:36;4.65;;;1.02;;
38935;SDS011;66589;47.458;9.644;2023-04-03T11:31:11;1.75;;;0.60;;
38935;SDS011;66589;47.458;9.644;2023-04-03T11:36:55;3.03;;;1.00;;
38935;SDS011;66589;47.458;9.644;2023-04-03T11:39:31;4.10;;;1.13;;
38935;SDS011;66589;47.458;9.644;2023-04-03T11:44:40;6.15;;;1.42;;
38935;SDS011;66589;47.458;9.644;2023-04-03T11:47:07;4.53;;;0.88;;
38935;SDS011;66589;47.458;9.644;2023-04-03T11:50:16;3.35;;;1.08;;
38935;SDS011;66589;47.458;9.644;2023-04-03T12:06:41;3.00;;;1.02;;
38935;SDS011;66589;47.458;9.644;2023-04-03T12:08:43;4.80;;;1.50;;
38935;SDS011;66589;47.458;9.644;2023-04-03T12:44:27;2.70;;;0.73;;
38935;SDS011;66589;47.458;9.644;2023-04-03T12:46:51;6.32;;;0.40;;
38935;SDS011;66589;47.458;9.644;2023-04-03T12:51:50;3.80;;;0.57;;
38935;SDS011;66589;47.458;9.644;2023-04-03T12:56:47;2.97;;;0.50;;
38935;SDS011;66589;47.458;9.644;2023-04-03T13:01:53;2.40;;;0.43;;
38935;SDS011;66589;47.458;9.644;2023-04-03T13:04:23;2.10;;;0.55;;
38935;SDS011;66589;47.458;9.644;2023-04-03T13:06:50;2.95;;;0.30;;
38935;SDS011;66589;47.458;9.644;2023-04-03T13:09:23;1.75;;;0.32;;
38935;SDS011;66589;47.458;9.644;2023-04-03T13:11:55;3.00;;;0.40;;
38935;SDS011;66589;47.458;9.644;2023-04-03T13:14:27;1.33;;;0.43;;
38935;SDS011;66589;47.458;9.644;2023-04-03T13:16:57;1.92;;;0.50;;
38935;SDS011;66589;47.458;9.644;2023-04-03T13:19:25;4.25;;;1.20;;
38935;SDS011;66589;47.458;9.644;2023-04-03T13:21:56;1.80;;;0.60;;
38935;SDS011;66589;47.458;9.644;2023-04-03T13:24:31;3.03;;;0.65;;
38935;SDS011;66589;47.458;9.644;2023-04-03T13:27:01;2.42;;;0.85;;
38935;SDS011;66589;47.458;9.644;2023-04-03T13:29:35;6.32;;;1.27;;
38935;SDS011;66589;47.458;9.644;2023-04-03T13:32:04;5.40;;;1.27;;
38935;SDS011;66589;47.458;9.644;2023-04-03T13:34:38;7.18;;;1.40;;
38935;SDS011;66589;47.458;9.644;2023-04-03T13:37:18;2.72;;;0.85;;
38935;SDS011;66589;47.458;9.644;2023-04-03T13:42:30;4.43;;;0.90;;
38935;SDS011;66589;47.458;9.644;2023-04-03T13:47:38;7.35;;;1.80;;
38935;SDS011;66589;47.458;9.644;2023-04-03T13:52:52;3.72;;;1.15;;
38935;SDS011;66589;47.458;9.644;2023-04-03T13:55:24;5.40;;;1.65;;
38935;SDS011;66589;47.458;9.644;2023-04-03T13:57:59;7.20;;;1.70;;
38935;SDS011;66589;47.458;9.644;2023-04-03T14:00:48;3.85;;;0.90;;
38935;SDS011;66589;47.458;9.644;2023-04-03T14:05:49;3.03;;;0.60;;
38935;SDS011;66589;47.458;9.644;2023-04-03T14:08:15;3.45;;;1.05;;
38935;SDS011;66589;47.458;9.644;2023-04-03T14:10:48;2.15;;;0.73;;
38935;SDS011;66589;47.458;9.644;2023-04-03T14:13:17;4.72;;;0.68;;
38935;SDS011;66589;47.458;9.644;2023-04-03T14:15:45;2.15;;;0.68;;
38935;SDS011;66589;47.458;9.644;2023-04-03T14:18:13;4.47;;;0.60;;
38935;SDS011;66589;47.458;9.644;2023-04-03T14:20:42;2.70;;;0.73;;
38935;SDS011;66589;47.458;9.644;2023-04-03T14:23:08;3.15;;;0.70;;
38935;SDS011;66589;47.458;9.644;2023-04-03T14:25:35;2.90;;;0.57;;
38935;SDS011;66589;47.458;9.644;2023-04-03T14:28:07;4.38;;;0.60;;
38935;SDS011;66589;47.458;9.644;2023-04-03T14:30:40;1.90;;;0.60;;
38935;SDS011;66589;47.458;9.644;2023-04-03T14:33:06;1.85;;;0.50;;
38935;SDS011;66589;47.458;9.644;2023-04-03T14:35:32;2.92;;;0.82;;
38935;SDS011;66589;47.458;9.644;2023-04-03T14:37:57;5.32;;;0.73;;
38935;SDS011;66589;47.458;9.644;2023-04-03T14:40:25;2.50;;;0.60;;
38935;SDS011;66589;47.458;9.644;2023-04-03T14:42:52;1.67;;;0.40;;
38935;SDS011;66589;47.458;9.644;2023-04-03T14:45:20;2.58;;;0.70;;
38935;SDS011;66589;47.458;9.644;2023-04-03T14:47:48;2.20;;;0.80;;
38935;SDS011;66589;47.458;9.644;2023-04-03T14:50:22;2.55;;;0.80;;
38935;SDS011;66589;47.458;9.644;2023-04-03T14:52:50;3.53;;;1.17;;
38935;SDS011;66589;47.458;9.644;2023-04-03T14:55:19;5.65;;;0.98;;
38935;SDS011;66589;47.458;9.644;2023-04-03T14:57:46;4.07;;;1.02;;
38935;SDS011;66589;47.458;9.644;2023-04-03T15:00:12;1.75;;;0.50;;
38935;SDS011;66589;47.458;9.644;2023-04-03T15:02:40;1.90;;;0.70;;
38935;SDS011;66589;47.458;9.644;2023-04-03T15:05:07;2.92;;;0.85;;
38935;SDS011;66589;47.458;9.644;2023-04-03T15:07:52;4.93;;;1.10;;
38935;SDS011;66589;47.458;9.644;2023-04-03T15:10:21;2.95;;;0.65;;
38935;SDS011;66589;47.458;9.644;2023-04-03T15:12:54;2.33;;;0.55;;
38935;SDS011;66589;47.458;9.644;2023-04-03T15:15:21;1.92;;;0.63;;
38935;SDS011;66589;47.458;9.644;2023-04-03T15:17:49;2.42;;;0.70;;
38935;SDS011;66589;47.458;9.644;2023-04-03T15:20:19;4.03;;;0.80;;
38935;SDS011;66589;47.458;9.644;2023-04-03T15:22:47;2.47;;;0.80;;
38935;SDS011;66589;47.458;9.644;2023-04-03T15:25:13;4.00;;;0.80;;
38935;SDS011;66589;47.458;9.644;2023-04-03T15:27:39;2.67;;;0.60;;
38935;SDS011;66589;47.458;9.644;2023-04-03T15:30:06;2.80;;;0.77;;
38935;SDS011;66589;47.458;9.644;2023-04-03T15:32:34;2.65;;;0.70;;
38935;SDS011;66589;47.458;9.644;2023-04-03T15:35:00;2.05;;;0.80;;
38935;SDS011;66589;47.458;9.644;2023-04-03T15:37:27;3.13;;;0.50;;
38935;SDS011;66589;47.458;9.644;2023-04-03T15:39:53;2.67;;;0.52;;
38935;SDS011;66589;47.458;9.644;2023-04-03T15:42:19;2.55;;;0.82;;
38935;SDS011;66589;47.458;9.644;2023-04-03T15:44:45;4.22;;;1.33;;
38935;SDS011;66589;47.458;9.644;2023-04-03T15:47:11;2.92;;;0.85;;
38935;SDS011;66589;47.458;9.644;2023-04-03T15:49:37;3.10;;;1.30;;
38935;SDS011;66589;47.458;9.644;2023-04-03T15:52:03;2.85;;;0.80;;
38935;SDS011;66589;47.458;9.644;2023-04-03T15:54:29;3.15;;;0.50;;
38935;SDS011;66589;47.458;9.644;2023-04-03T15:56:55;2.65;;;0.80;;
38935;SDS011;66589;47.458;9.644;2023-04-03T15:59:21;2.42;;;0.73;;
38935;SDS011;66589;47.458;9.644;2023-04-03T16:01:47;3.63;;;0.75;;
38935;SDS011;66589;47.458;9.644;2023-04-03T16:04:15;1.95;;;0.60;;
38935;SDS011;66589;47.458;9.644;2023-04-03T16:06:41;4.60;;;0.73;;
38935;SDS011;66589;47.458;9.644;2023-04-03T16:09:07;2.67;;;0.50;;
38935;SDS011;66589;47.458;9.644;2023-04-03T16:11:33;5.75;;;0.90;;
38935;SDS011;66589;47.458;9.644;2023-04-03T16:14:00;4.45;;;0.90;;
38935;SDS011;66589;47.458;9.644;2023-04-03T16:16:26;2.00;;;0.85;;
38935;SDS011;66589;47.458;9.644;2023-04-03T16:18:53;5.10;;;0.98;;
38935;SDS011;66589;47.458;9.644;2023-04-03T16:21:20;3.05;;;1.02;;
38935;SDS011;66589;47.458;9.644;2023-04-03T16:23:46;3.80;;;0.60;;
38935;SDS011;66589;47.458;9.644;2023-04-03T16:26:12;1.90;;;0.73;;
38935;SDS011;66589;47.458;9.644;2023-04-03T16:28:38;2.63;;;0.80;;
38935;SDS011;66589;47.458;9.644;2023-04-03T16:31:04;2.50;;;0.60;;
38935;SDS011;66589;47.458;9.644;2023-04-03T16:33:32;2.40;;;0.70;;
38935;SDS011;66589;47.458;9.644;2023-04-03T16:35:58;3.75;;;0.77;;
38935;SDS011;66589;47.458;9.644;2023-04-03T16:38:24;1.95;;;0.60;;
38935;SDS011;66589;47.458;9.644;2023-04-03T16:40:50;2.22;;;0.90;;
38935;SDS011;66589;47.458;9.644;2023-04-03T16:43:17;2.50;;;0.80;;
38935;SDS011;66589;47.458;9.644;2023-04-03T16:45:43;2.85;;;0.70;;
38935;SDS011;66589;47.458;9.644;2023-04-03T16:48:08;3.17;;;0.85;;
38935;SDS011;66589;47.458;9.644;2023-04-03T16:50:35;2.97;;;0.73;;
38935;SDS011;66589;47.458;9.644;2023-04-03T16:53:01;3.00;;;0.60;;
38935;SDS011;66589;47.458;9.644;2023-04-03T16:55:27;3.20;;;0.82;;
38935;SDS011;66589;47.458;9.644;2023-04-03T16:57:53;2.97;;;0.80;;
38935;SDS011;66589;47.458;9.644;2023-04-03T17:00:20;2.97;;;0.77;;
38935;SDS011;66589;47.458;9.644;2023-04-03T17:02:46;2.53;;;1.00;;
38935;SDS011;66589;47.458;9.644;2023-04-03T17:05:11;2.75;;;0.95;;
38935;SDS011;66589;47.458;9.644;2023-04-03T17:07:37;4.03;;;1.00;;
38935;SDS011;66589;47.458;9.644;2023-04-03T17:10:03;3.08;;;0.93;;
38935;SDS011;66589;47.458;9.644;2023-04-03T17:12:29;3.10;;;0.90;;